Denver, Colorado
Traffic Map
Current Weather Conditions
Denver, Colorado
Clear
Clear
25°
Feels Like: 25°
Wind Chill: 25° Ceiling: Unl
Heat Index: 25° Visibility: 10mi
Dew Point: -7° Wind: 12mph
Humidity: 11% Direction: 130° (SE)
Pressure: 30.11in Gusts: 0mph
Raw Report DataKBKF 252158Z 13010KT 10SM CLR 25/M07 A3011 RMK AO2A SLP132 T02541068
Traffic Incident Summary
Active as of:
Severity:
Category:
InformationThere was an issue retrieving the traffic information for this location. Please try a different location or try again shortly.
Advertisements
Track Severe Weather on mobile